Time;durP1;ratioP1;P1;durP2;ratioP2;P2;SDS_P1;SDS_P2;PMS_P1;PMS_P2;Temp;Humidity;BMP_temperature;BMP_pressure;BME280_temperature;BME280_humidity;BME280_pressure;Samples;Min_cycle;Max_cycle;Signal;HPM_P1;HPM_P2
2023/03/14 00:01:21;;;;;;;7.38;1.13;;;5.40;99.90;;;;;;4818688;29;20057;-59
2023/03/14 00:03:49;;;;;;;8.48;1.95;;;5.40;99.90;;;;;;4822284;29;20050;-58
2023/03/14 00:06:18;;;;;;;7.18;1.15;;;5.40;99.90;;;;;;4832317;29;20064;-58
2023/03/14 00:08:47;;;;;;;7.85;1.63;;;5.30;99.90;;;;;;4814821;29;20062;-59
2023/03/14 00:11:18;;;;;;;10.25;1.42;;;5.30;99.90;;;;;;4804995;29;20399;-59
2023/03/14 00:13:52;;;;;;;3.63;0.80;;;5.30;99.90;;;;;;4820786;29;20054;-58
2023/03/14 00:16:20;;;;;;;5.97;1.05;;;5.30;99.90;;;;;;4826711;29;20069;-60
2023/03/14 00:18:48;;;;;;;4.30;1.42;;;5.30;99.90;;;;;;4826716;29;20050;-58
2023/03/14 00:21:16;;;;;;;6.43;1.17;;;5.30;99.90;;;;;;4818124;29;20525;-58
2023/03/14 00:23:43;;;;;;;4.88;1.45;;;5.30;99.90;;;;;;4819546;29;20087;-60
2023/03/14 00:26:14;;;;;;;8.32;1.23;;;5.30;99.90;;;;;;4804468;29;20066;-59
2023/03/14 00:28:43;;;;;;;6.38;1.25;;;5.20;99.90;;;;;;4822863;29;20050;-59
2023/03/14 00:31:14;;;;;;;9.75;0.98;;;5.20;99.90;;;;;;4817669;29;20058;-59
2023/03/14 00:33:43;;;;;;;7.55;1.00;;;5.10;99.90;;;;;;4826802;29;20058;-61
2023/03/14 00:36:16;;;;;;;5.50;1.75;;;5.10;99.90;;;;;;4829305;29;20050;-58
2023/03/14 00:38:46;;;;;;;3.83;0.55;;;5.00;99.90;;;;;;4829776;29;20487;-58
2023/03/14 00:41:22;;;;;;;2.70;0.43;;;5.00;99.90;;;;;;4819060;29;20062;-60
2023/03/14 00:43:50;;;;;;;5.80;0.60;;;4.90;99.90;;;;;;4835802;29;20054;-58
2023/03/14 00:46:18;;;;;;;1.02;0.57;;;4.90;99.90;;;;;;4818520;29;20047;-59
2023/03/14 00:48:46;;;;;;;2.30;0.52;;;4.90;99.90;;;;;;4823425;29;20045;-59
2023/03/14 00:51:14;;;;;;;3.97;1.35;;;4.90;99.90;;;;;;4814030;29;20575;-60
2023/03/14 00:53:44;;;;;;;5.88;0.55;;;4.90;99.90;;;;;;4829171;29;20057;-59
2023/03/14 00:56:12;;;;;;;5.05;0.60;;;4.80;99.90;;;;;;4805790;29;20403;-59
2023/03/14 00:58:42;;;;;;;5.72;1.02;;;4.70;99.90;;;;;;4829673;29;20049;-58
2023/03/14 01:01:18;;;;;;;3.60;0.40;;;4.60;99.90;;;;;;4819882;29;20057;-58
2023/03/14 01:03:50;;;;;;;0.40;0.40;;;4.60;99.90;;;;;;4809905;29;20403;-59
2023/03/14 01:06:24;;;;;;;2.75;0.43;;;4.60;99.90;;;;;;4821657;29;20448;-58
2023/03/14 01:08:52;;;;;;;2.70;1.13;;;4.60;99.90;;;;;;4815058;29;20039;-60
2023/03/14 01:11:29;;;;;;;4.20;0.73;;;4.50;99.90;;;;;;4807337;29;20070;-61
2023/03/14 01:13:58;;;;;;;3.72;0.68;;;4.60;99.90;;;;;;4815973;29;20043;-60
2023/03/14 01:16:31;;;;;;;9.35;1.25;;;4.50;99.90;;;;;;4806129;29;20058;-59
2023/03/14 01:19:02;;;;;;;0.82;0.40;;;4.60;99.90;;;;;;4819308;29;20055;-59
2023/03/14 01:21:32;;;;;;;2.20;0.90;;;4.60;99.90;;;;;;4819236;29;20050;-58
2023/03/14 01:24:02;;;;;;;3.42;1.63;;;4.60;99.90;;;;;;4829576;29;20046;-61
2023/03/14 01:26:32;;;;;;;2.40;1.60;;;4.60;99.90;;;;;;4804643;29;20054;-58
2023/03/14 01:29:01;;;;;;;2.53;1.02;;;4.60;99.90;;;;;;4817109;29;20050;-61
2023/03/14 01:31:29;;;;;;;3.03;0.50;;;4.70;99.90;;;;;;4818570;29;20054;-58
2023/03/14 01:33:57;;;;;;;4.47;0.52;;;4.70;99.90;;;;;;4828897;29;20056;-61
2023/03/14 01:36:24;;;;;;;2.28;0.30;;;4.70;99.90;;;;;;4838764;29;20054;-61
2023/03/14 01:38:52;;;;;;;1.30;0.38;;;4.70;99.90;;;;;;4821783;29;20047;-58
2023/03/14 01:41:23;;;;;;;3.40;0.75;;;4.70;99.90;;;;;;4818831;29;20059;-61
2023/03/14 01:43:53;;;;;;;2.00;0.60;;;4.70;99.90;;;;;;4823492;29;20054;-59
2023/03/14 01:46:29;;;;;;;3.13;0.75;;;4.70;99.90;;;;;;4810377;29;20059;-58
2023/03/14 01:49:27;;;;;;;4.50;0.50;;;4.70;99.90;;;;;;4814224;29;20050;-61
2023/03/14 01:52:41;;;;;;;0.80;0.50;;;4.70;99.90;;;;;;4809029;29;20067;-60
2023/03/14 01:55:13;;;;;;;1.65;0.70;;;4.70;99.90;;;;;;4821923;29;20055;-61
2023/03/14 01:57:50;;;;;;;1.02;0.40;;;4.60;99.90;;;;;;4807329;29;20058;-61
2023/03/14 02:00:22;;;;;;;3.03;0.80;;;4.60;99.90;;;;;;4822435;29;20061;-60
2023/03/14 02:03:06;;;;;;;1.42;0.28;;;4.60;99.90;;;;;;4819461;29;20415;-60
2023/03/14 02:05:37;;;;;;;1.38;0.40;;;4.60;99.90;;;;;;4833259;29;20045;-60
2023/03/14 02:08:19;;;;;;;0.70;0.40;;;4.60;99.90;;;;;;4806938;29;20510;-60
2023/03/14 02:10:50;;;;;;;2.13;0.80;;;4.60;99.90;;;;;;4816111;29;20055;-61
2023/03/14 02:13:30;;;;;;;;;;;4.50;99.90;;;;;;4818109;29;20054;-60
2023/03/14 02:16:16;;;;;;;2.67;1.10;;;4.50;99.90;;;;;;4809785;29;19932;-60
2023/03/14 02:19:09;;;;;;;2.22;1.13;;;4.50;99.90;;;;;;4833040;29;20067;-60
2023/03/14 02:22:10;;;;;;;1.40;1.00;;;4.50;99.90;;;;;;4812458;29;20050;-60
2023/03/14 02:25:04;;;;;;;3.10;1.20;;;4.50;99.90;;;;;;4831879;29;20042;-60
2023/03/14 02:27:33;;;;;;;3.05;0.93;;;4.40;99.90;;;;;;4812103;29;20518;-60
2023/03/14 02:30:13;;;;;;;1.00;0.93;;;4.50;99.90;;;;;;4810724;29;20050;-58
2023/03/14 02:32:51;;;;;;;1.38;0.80;;;4.50;99.90;;;;;;4816135;29;20057;-59
2023/03/14 02:35:22;;;;;;;0.50;0.50;;;4.40;99.90;;;;;;4816733;29;20065;-60
2023/03/14 02:37:53;;;;;;;1.05;0.60;;;4.40;99.90;;;;;;4823635;29;20061;-58
2023/03/14 02:40:22;;;;;;;0.90;0.82;;;4.40;99.90;;;;;;4821228;29;20050;-59
2023/03/14 02:42:52;;;;;;;1.20;0.70;;;4.40;99.90;;;;;;4806933;29;20411;-59
2023/03/14 02:45:22;;;;;;;0.60;0.50;;;4.30;99.90;;;;;;4816204;29;20051;-59
2023/03/14 02:47:59;;;;;;;0.60;0.60;;;4.30;99.90;;;;;;4813750;29;20046;-58
2023/03/14 02:50:33;;;;;;;0.73;0.70;;;4.30;99.90;;;;;;4818372;29;20054;-59
2023/03/14 02:53:01;;;;;;;1.10;0.70;;;4.20;99.90;;;;;;4819091;29;20047;-59
2023/03/14 02:55:29;;;;;;;1.17;0.75;;;4.20;99.90;;;;;;4817319;29;20062;-59
2023/03/14 02:58:01;;;;;;;4.97;1.20;;;4.20;99.90;;;;;;4809800;29;20058;-59
2023/03/14 03:00:30;;;;;;;1.77;0.90;;;4.20;99.90;;;;;;4819314;29;20050;-60
2023/03/14 03:02:58;;;;;;;0.90;0.82;;;4.10;99.90;;;;;;4821596;29;20050;-59
2023/03/14 03:05:26;;;;;;;2.00;0.95;;;4.10;99.90;;;;;;4829953;29;20057;-60
2023/03/14 03:07:53;;;;;;;1.58;1.17;;;4.10;99.90;;;;;;4818424;29;20136;-60
2023/03/14 03:10:22;;;;;;;1.27;1.10;;;4.10;99.90;;;;;;4809570;29;20051;-59
2023/03/14 03:12:51;;;;;;;1.90;1.25;;;4.00;99.90;;;;;;4815141;29;20068;-60
2023/03/14 03:15:23;;;;;;;4.18;1.13;;;4.00;99.90;;;;;;4802534;29;20773;-59
2023/03/14 03:17:51;;;;;;;2.30;1.45;;;4.00;99.90;;;;;;4818089;29;20053;-62
2023/03/14 03:20:20;;;;;;;3.50;1.30;;;4.00;99.90;;;;;;4821521;29;20057;-60
2023/03/14 03:22:49;;;;;;;5.07;2.58;;;4.00;99.90;;;;;;4820404;29;20632;-58
2023/03/14 03:25:17;;;;;;;2.30;1.13;;;3.90;99.90;;;;;;4822715;29;20051;-60
2023/03/14 03:27:46;;;;;;;1.60;1.00;;;3.90;99.90;;;;;;4821828;29;20050;-60
2023/03/14 03:30:17;;;;;;;4.82;1.00;;;3.90;99.90;;;;;;4821286;29;20042;-59
2023/03/14 03:32:46;;;;;;;1.50;0.97;;;3.80;99.90;;;;;;4821057;29;20514;-59
2023/03/14 03:35:14;;;;;;;2.65;0.55;;;3.80;99.90;;;;;;4818301;29;20049;-59
2023/03/14 03:37:42;;;;;;;1.80;0.65;;;3.70;99.90;;;;;;4835582;29;20050;-63
2023/03/14 03:40:10;;;;;;;4.93;1.10;;;3.70;99.90;;;;;;4820306;29;20388;-58
2023/03/14 03:42:38;;;;;;;1.63;0.75;;;3.60;99.90;;;;;;4820782;29;20054;-59
2023/03/14 03:45:09;;;;;;;6.35;1.73;;;3.60;99.90;;;;;;4821217;29;20055;-59
2023/03/14 03:47:43;;;;;;;1.65;0.98;;;3.60;99.90;;;;;;4812027;29;20047;-59
2023/03/14 03:50:11;;;;;;;2.75;1.00;;;3.60;99.90;;;;;;4823643;29;20066;-58
2023/03/14 03:52:39;;;;;;;2.63;0.90;;;3.50;99.90;;;;;;4826170;29;20042;-59
2023/03/14 03:55:07;;;;;;;0.85;0.80;;;3.50;99.90;;;;;;4824886;29;20411;-58
2023/03/14 03:57:35;;;;;;;0.73;0.70;;;3.50;99.90;;;;;;4825643;29;20069;-58
2023/03/14 04:00:05;;;;;;;3.10;0.68;;;3.40;99.90;;;;;;4807144;29;20164;-58
2023/03/14 04:02:40;;;;;;;1.65;0.90;;;3.40;99.90;;;;;;4825856;29;20061;-59
2023/03/14 04:05:12;;;;;;;1.70;1.00;;;3.30;99.90;;;;;;4831777;29;20061;-59
2023/03/14 04:07:46;;;;;;;1.95;1.15;;;3.30;99.90;;;;;;4825862;29;20051;-59
2023/03/14 04:10:18;;;;;;;2.15;1.05;;;3.20;99.90;;;;;;4806089;29;20423;-58
2023/03/14 04:13:08;;;;;;;2.92;1.70;;;3.20;99.90;;;;;;4818785;29;20416;-59
2023/03/14 04:15:38;;;;;;;2.13;1.10;;;3.20;99.90;;;;;;4791486;29;20420;-60
2023/03/14 04:18:15;;;;;;;2.10;1.30;;;3.20;99.90;;;;;;4818695;29;20054;-58
2023/03/14 04:20:44;;;;;;;1.65;1.27;;;3.10;99.90;;;;;;4824220;29;20628;-59
2023/03/14 04:23:12;;;;;;;3.90;0.98;;;3.10;99.90;;;;;;4823168;29;20053;-59
2023/03/14 04:25:39;;;;;;;2.80;1.00;;;3.10;99.90;;;;;;4824254;29;20140;-58
2023/03/14 04:28:11;;;;;;;2.63;1.05;;;3.00;99.90;;;;;;4822834;29;20624;-59
2023/03/14 04:30:39;;;;;;;3.00;1.35;;;2.90;99.90;;;;;;4823963;29;20058;-58
2023/03/14 04:33:12;;;;;;;1.40;1.20;;;2.90;99.90;;;;;;4823996;29;20049;-58
2023/03/14 04:35:46;;;;;;;1.48;1.23;;;2.80;99.90;;;;;;4835024;29;20061;-58
2023/03/14 04:38:16;;;;;;;1.27;1.02;;;2.70;99.90;;;;;;4835265;29;20419;-58
2023/03/14 04:40:45;;;;;;;4.07;1.23;;;3.10;99.90;;;;;;4823063;29;20055;-58
2023/03/14 04:43:15;;;;;;;1.30;0.88;;;2.60;99.90;;;;;;4823721;29;20054;-58
2023/03/14 04:45:50;;;;;;;4.15;1.13;;;2.70;99.90;;;;;;4819656;29;20047;-60
2023/03/14 04:48:18;;;;;;;5.45;1.35;;;2.60;99.90;;;;;;4823750;29;20046;-57
2023/03/14 04:50:47;;;;;;;3.00;1.60;;;2.70;99.90;;;;;;4823721;29;20050;-58
2023/03/14 04:53:17;;;;;;;3.80;1.30;;;2.60;99.90;;;;;;4823560;29;20043;-58
2023/03/14 04:55:51;;;;;;;5.45;1.33;;;2.70;99.90;;;;;;4823469;29;20054;-58
2023/03/14 04:58:20;;;;;;;5.53;1.58;;;2.70;99.90;;;;;;4822781;29;20050;-59
2023/03/14 05:00:49;;;;;;;1.17;1.00;;;2.70;99.90;;;;;;4823669;29;20074;-57
2023/03/14 05:03:44;;;;;;;5.50;1.67;;;2.70;99.90;;;;;;4804807;29;20202;-58
2023/03/14 05:06:21;;;;;;;3.13;1.05;;;2.70;99.90;;;;;;4837404;29;20064;-59
2023/03/14 05:09:09;;;;;;;1.92;1.20;;;2.70;99.90;;;;;;4825871;29;20062;-59
2023/03/14 05:11:55;;;;;;;4.30;1.33;;;2.70;99.90;;;;;;4824555;29;20395;-58
2023/03/14 05:14:43;;;;;;;2.00;1.15;;;2.70;99.90;;;;;;4823301;29;20043;-59
2023/03/14 05:17:32;;;;;;;3.60;1.48;;;2.70;99.90;;;;;;4821295;29;20053;-59
2023/03/14 05:20:21;;;;;;;3.05;0.85;;;2.70;99.90;;;;;;4823736;29;20043;-58
2023/03/14 05:23:08;;;;;;;3.60;1.25;;;2.60;99.90;;;;;;4824323;29;20050;-58
2023/03/14 05:25:47;;;;;;;;;;;2.60;99.90;;;;;;4822961;29;20059;-59
2023/03/14 05:28:34;;;;;;;3.63;1.10;;;2.60;99.90;;;;;;4823928;29;19929;-57
2023/03/14 05:31:24;;;;;;;2.60;0.98;;;2.50;99.90;;;;;;4829582;29;20523;-58
2023/03/14 05:34:31;;;;;;;2.45;1.33;;;2.40;99.90;;;;;;4843567;29;20042;-58
2023/03/14 05:37:11;;;;;;;1.23;1.10;;;2.30;99.90;;;;;;4833647;29;20058;-58
2023/03/14 05:39:58;;;;;;;2.55;1.15;;;2.10;99.90;;;;;;4821069;29;20058;-58
2023/03/14 05:42:37;;;;;;;4.65;1.00;;;2.10;99.90;;;;;;4818995;29;20404;-58
2023/03/14 05:45:09;;;;;;;3.25;1.10;;;2.00;99.90;;;;;;4805765;29;20207;-59
2023/03/14 05:47:54;;;;;;;4.38;1.38;;;1.90;99.90;;;;;;4806574;29;20061;-58
2023/03/14 05:50:45;;;;;;;2.53;1.10;;;1.90;99.90;;;;;;4801948;29;20491;-59
2023/03/14 05:53:29;;;;;;;4.22;1.77;;;1.80;99.90;;;;;;4822559;29;20671;-59
2023/03/14 05:56:15;;;;;;;4.65;2.60;;;1.80;99.90;;;;;;4802121;29;20054;-59
2023/03/14 05:59:16;;;;;;;3.00;1.80;;;1.80;99.90;;;;;;4828361;29;20062;-57
2023/03/14 06:02:13;;;;;;;5.60;2.38;;;1.90;99.90;;;;;;4817920;29;20066;-58
2023/03/14 06:04:52;;;;;;;;;;;1.80;99.90;;;;;;4811015;29;20046;-58
2023/03/14 06:07:20;;;;;;;4.65;1.92;;;1.80;99.90;;;;;;4835266;29;19925;-61
2023/03/14 06:09:48;;;;;;;7.00;2.33;;;1.90;99.90;;;;;;4801978;29;20065;-58
2023/03/14 06:12:18;;;;;;;9.02;2.50;;;1.90;99.90;;;;;;4821690;29;20045;-60
2023/03/14 06:14:46;;;;;;;10.40;4.07;;;1.80;99.90;;;;;;4837131;29;20438;-60
2023/03/14 06:17:14;;;;;;;13.23;3.17;;;1.90;99.90;;;;;;4815752;29;20054;-60
2023/03/14 06:19:50;;;;;;;7.78;3.13;;;1.90;99.90;;;;;;4804045;29;20038;-58
2023/03/14 06:22:19;;;;;;;12.07;2.92;;;1.90;99.90;;;;;;4822909;29;20068;-58
2023/03/14 06:24:47;;;;;;;10.07;3.03;;;2.00;99.90;;;;;;4837217;29;20050;-59
2023/03/14 06:27:17;;;;;;;9.57;3.65;;;2.00;99.90;;;;;;4828961;29;20570;-61
2023/03/14 06:29:45;;;;;;;12.02;2.60;;;2.00;99.90;;;;;;4833779;29;20042;-58
2023/03/14 06:32:12;;;;;;;11.82;3.15;;;2.10;99.90;;;;;;4817153;29;20283;-59
2023/03/14 06:34:41;;;;;;;12.98;2.90;;;2.10;99.90;;;;;;4818012;29;20053;-60
2023/03/14 06:37:19;;;;;;;12.13;2.20;;;2.20;99.90;;;;;;4833230;29;20054;-60
2023/03/14 06:39:49;;;;;;;14.60;2.05;;;2.20;99.90;;;;;;4817944;29;20046;-59
2023/03/14 06:42:40;;;;;;;9.02;1.95;;;2.20;99.90;;;;;;4833923;29;20084;-60
2023/03/14 06:45:09;;;;;;;6.95;1.88;;;2.20;99.90;;;;;;4823407;29;20050;-58
2023/03/14 06:47:39;;;;;;;10.05;2.20;;;2.20;99.90;;;;;;4817062;29;20039;-58
2023/03/14 06:50:09;;;;;;;8.38;1.75;;;2.20;99.90;;;;;;4812533;29;20395;-60
2023/03/14 06:52:41;;;;;;;;;;;2.20;99.90;;;;;;4817100;29;20325;-59
2023/03/14 06:55:09;;;;;;;9.13;1.52;;;2.20;99.90;;;;;;4806490;29;19925;-59
2023/03/14 06:57:37;;;;;;;7.17;1.90;;;2.30;99.90;;;;;;4809895;29;20398;-59
2023/03/14 07:00:09;;;;;;;15.32;1.85;;;2.30;99.90;;;;;;4832333;29;20069;-59
2023/03/14 07:02:40;;;;;;;9.63;1.70;;;2.30;99.90;;;;;;4816215;29;20038;-59
2023/03/14 07:05:23;;;;;;;9.57;1.30;;;2.20;99.90;;;;;;4807948;29;20051;-59
2023/03/14 07:07:51;;;;;;;14.13;1.70;;;2.20;99.90;;;;;;4824588;29;20049;-59
2023/03/14 07:10:20;;;;;;;11.05;1.95;;;2.20;99.90;;;;;;4834828;29;20056;-59
2023/03/14 07:12:47;;;;;;;19.38;1.88;;;2.10;99.90;;;;;;4826535;29;20064;-58
2023/03/14 07:15:16;;;;;;;15.10;2.05;;;2.00;99.90;;;;;;4836166;29;20061;-58
2023/03/14 07:17:50;;;;;;;12.43;1.80;;;2.00;99.90;;;;;;4818287;29;20061;-60
2023/03/14 07:20:22;;;;;;;9.90;1.83;;;2.00;99.90;;;;;;4799882;29;20047;-59
2023/03/14 07:22:50;;;;;;;15.75;2.13;;;2.00;99.90;;;;;;4816217;29;20542;-59
2023/03/14 07:25:29;;;;;;;15.10;1.80;;;2.00;99.90;;;;;;4811377;29;20055;-58
2023/03/14 07:27:57;;;;;;;12.93;1.38;;;2.00;99.90;;;;;;4837203;29;20050;-59
2023/03/14 07:30:25;;;;;;;10.05;1.80;;;2.00;99.90;;;;;;4831215;29;20050;-58
2023/03/14 07:32:55;;;;;;;9.82;2.05;;;2.00;99.90;;;;;;4812339;29;20038;-58
2023/03/14 07:35:33;;;;;;;10.60;1.67;;;2.00;99.90;;;;;;4808606;29;20076;-57
2023/03/14 07:38:01;;;;;;;16.02;2.15;;;2.00;99.90;;;;;;4808007;29;20046;-58
2023/03/14 07:40:36;;;;;;;8.00;2.10;;;2.10;99.90;;;;;;4813441;29;20372;-58
2023/03/14 07:43:05;;;;;;;19.65;2.42;;;2.10;99.90;;;;;;4808058;29;20055;-59
2023/03/14 07:45:46;;;;;;;11.63;1.95;;;2.10;99.90;;;;;;4799860;29;20065;-58
2023/03/14 07:48:17;;;;;;;12.15;2.78;;;2.10;99.90;;;;;;4807458;29;20396;-59
2023/03/14 07:50:49;;;;;;;14.60;3.05;;;2.20;99.90;;;;;;4818525;29;20057;-59
2023/03/14 07:53:18;;;;;;;10.93;1.95;;;2.20;99.90;;;;;;4822763;29;20441;-58
2023/03/14 07:55:54;;;;;;;12.40;2.25;;;2.20;99.90;;;;;;4819054;29;20077;-59
2023/03/14 07:58:27;;;;;;;10.25;2.20;;;2.30;99.90;;;;;;4822979;29;20395;-59
2023/03/14 08:00:58;;;;;;;13.63;3.13;;;2.30;99.90;;;;;;4806752;29;20049;-58
2023/03/14 08:03:26;;;;;;;9.77;2.45;;;2.30;99.90;;;;;;4821388;29;20937;-61
2023/03/14 08:06:02;;;;;;;7.03;2.00;;;2.40;99.90;;;;;;4818529;29;20062;-58
2023/03/14 08:08:29;;;;;;;14.68;3.13;;;2.50;99.90;;;;;;4818589;29;20057;-60
2023/03/14 08:11:03;;;;;;;20.92;3.13;;;2.50;99.90;;;;;;4814759;29;20085;-59
2023/03/14 08:13:34;;;;;;;11.30;2.75;;;2.50;99.90;;;;;;4826658;29;20331;-58
2023/03/14 08:16:02;;;;;;;8.98;2.20;;;2.50;99.90;;;;;;4810151;29;20324;-60
2023/03/14 08:18:30;;;;;;;19.75;2.78;;;2.60;99.90;;;;;;4820018;29;20054;-58
2023/03/14 08:20:59;;;;;;;16.15;2.50;;;2.60;99.90;;;;;;4828296;29;20050;-62
2023/03/14 08:23:30;;;;;;;16.20;2.83;;;2.70;99.90;;;;;;4827193;29;20050;-58
2023/03/14 08:25:57;;;;;;;20.88;2.92;;;2.70;99.90;;;;;;4833918;29;20061;-58
2023/03/14 08:28:30;;;;;;;22.67;3.03;;;2.70;99.90;;;;;;4828801;29;20414;-59
2023/03/14 08:30:58;;;;;;;11.00;1.60;;;2.80;99.90;;;;;;4837330;29;20050;-58
2023/03/14 08:33:30;;;;;;;11.88;1.98;;;2.90;99.90;;;;;;4820603;29;20046;-59
2023/03/14 08:36:00;;;;;;;12.18;2.30;;;2.90;99.90;;;;;;4830565;29;20062;-60
2023/03/14 08:38:29;;;;;;;17.20;3.05;;;2.90;99.90;;;;;;4829438;29;20053;-58
2023/03/14 08:40:59;;;;;;;13.80;2.53;;;2.90;99.90;;;;;;4818737;29;20050;-59
2023/03/14 08:43:30;;;;;;;16.80;2.50;;;3.00;99.90;;;;;;4816950;29;20523;-58
2023/03/14 08:46:02;;;;;;;18.15;2.92;;;3.10;99.90;;;;;;4797382;29;20051;-59
2023/03/14 08:48:30;;;;;;;17.70;3.35;;;3.10;99.90;;;;;;4815161;29;20054;-59
2023/03/14 08:51:12;;;;;;;22.85;4.00;;;3.10;99.90;;;;;;4817803;29;20070;-59
2023/03/14 08:53:40;;;;;;;19.00;4.72;;;3.20;99.90;;;;;;4827094;29;20067;-61
2023/03/14 08:56:10;;;;;;;15.55;2.33;;;3.20;99.90;;;;;;4820925;29;20427;-58
2023/03/14 08:58:37;;;;;;;25.10;2.58;;;3.20;99.90;;;;;;4813609;29;20066;-59
2023/03/14 09:01:07;;;;;;;12.45;1.88;;;3.30;99.90;;;;;;4810134;29;20050;-58
2023/03/14 09:03:35;;;;;;;15.93;1.85;;;3.30;99.90;;;;;;4816854;29;20054;-58
2023/03/14 09:06:05;;;;;;;20.33;2.45;;;3.40;99.90;;;;;;4835445;29;20060;-60
2023/03/14 09:08:33;;;;;;;13.40;2.10;;;3.40;99.90;;;;;;4829333;29;20046;-59
2023/03/14 09:11:03;;;;;;;;;;;3.50;99.90;;;;;;4809261;29;20054;-60
2023/03/14 09:13:30;;;;;;;12.70;2.20;;;3.50;99.90;;;;;;4826793;29;19925;-61
2023/03/14 09:15:58;;;;;;;22.35;3.08;;;3.60;99.90;;;;;;4828126;29;20556;-59
2023/03/14 09:18:26;;;;;;;14.48;2.72;;;3.70;99.90;;;;;;4812636;29;20057;-60
2023/03/14 09:20:54;;;;;;;15.95;2.67;;;3.80;99.90;;;;;;4803593;29;20403;-59
2023/03/14 09:23:22;;;;;;;13.87;3.07;;;3.80;99.90;;;;;;4810274;29;20042;-60
2023/03/14 09:25:58;;;;;;;11.52;1.80;;;3.90;99.90;;;;;;4818642;29;20050;-60
2023/03/14 09:28:26;;;;;;;15.27;2.50;;;3.90;99.90;;;;;;4824453;29;20062;-60
2023/03/14 09:30:55;;;;;;;5.40;1.40;;;3.90;99.90;;;;;;4820705;29;20051;-62
2023/03/14 09:33:24;;;;;;;11.63;1.73;;;4.00;99.90;;;;;;4819201;29;20070;-62
2023/03/14 09:35:52;;;;;;;16.92;2.10;;;4.00;99.90;;;;;;4811981;29;20402;-59
2023/03/14 09:38:20;;;;;;;9.52;1.48;;;4.00;99.90;;;;;;4816952;29;20058;-61
2023/03/14 09:40:49;;;;;;;13.70;1.63;;;4.10;99.90;;;;;;4813218;29;20050;-59
2023/03/14 09:43:16;;;;;;;15.32;2.15;;;4.10;99.90;;;;;;4824764;29;20086;-61
2023/03/14 09:45:47;;;;;;;6.55;1.52;;;4.20;99.90;;;;;;4820743;29;20514;-61
2023/03/14 09:48:21;;;;;;;8.15;2.13;;;4.30;99.90;;;;;;4818582;29;20051;-59
2023/03/14 09:50:54;;;;;;;11.07;1.88;;;4.40;99.90;;;;;;4820011;29;20046;-58
2023/03/14 09:53:42;;;;;;;13.02;1.73;;;4.70;99.90;;;;;;4810934;29;20051;-61
2023/03/14 09:56:21;;;;;;;19.27;2.35;;;4.70;99.90;;;;;;4802502;29;20488;-60
2023/03/14 09:58:54;;;;;;;10.98;2.28;;;4.80;99.90;;;;;;4828579;29;20388;-60
2023/03/14 10:01:27;;;;;;;22.02;2.50;;;5.10;99.90;;;;;;4829045;29;20050;-60
2023/03/14 10:04:15;;;;;;;8.70;2.80;;;5.20;99.90;;;;;;4833156;29;20546;-62
2023/03/14 10:06:43;;;;;;;18.60;3.05;;;5.30;99.90;;;;;;4797288;29;20067;-59
2023/03/14 10:09:25;;;;;;;14.77;2.25;;;5.20;99.90;;;;;;4806733;29;20051;-60
2023/03/14 10:11:59;;;;;;;17.60;2.83;;;5.30;99.90;;;;;;4801422;29;20051;-60
2023/03/14 10:14:43;;;;;;;11.18;2.05;;;5.40;99.90;;;;;;4797693;29;20066;-61
2023/03/14 10:17:13;;;;;;;15.65;2.33;;;5.40;99.90;;;;;;4800946;29;20117;-60
2023/03/14 10:19:56;;;;;;;12.65;1.63;;;5.50;99.90;;;;;;4838342;29;20056;-61
2023/03/14 10:22:31;;;;;;;15.95;2.55;;;5.50;99.90;;;;;;4810929;29;20047;-61
2023/03/14 10:25:07;;;;;;;13.25;2.42;;;5.50;99.90;;;;;;4833751;29;20049;-60
2023/03/14 10:27:36;;;;;;;13.50;2.10;;;5.50;99.90;;;;;;4811433;29;20068;-61
2023/03/14 10:30:10;;;;;;;10.60;1.83;;;5.60;99.90;;;;;;4837092;29;20531;-61
2023/03/14 10:32:41;;;;;;;15.38;2.22;;;5.70;99.90;;;;;;4837975;29;20054;-60
2023/03/14 10:35:15;;;;;;;21.75;2.35;;;5.70;99.90;;;;;;4825667;29;20050;-61
2023/03/14 10:38:01;;;;;;;11.90;2.67;;;5.80;99.90;;;;;;4820264;29;20411;-60
2023/03/14 10:40:37;;;;;;;19.35;2.22;;;5.90;99.90;;;;;;4802991;29;20051;-60
2023/03/14 10:43:13;;;;;;;8.80;1.70;;;6.00;99.90;;;;;;4828358;29;20050;-60
2023/03/14 10:45:43;;;;;;;17.98;2.60;;;6.20;99.90;;;;;;4822974;29;20081;-60
2023/03/14 10:48:14;;;;;;;7.95;1.65;;;6.20;99.90;;;;;;4811017;29;20065;-60
2023/03/14 10:51:18;;;;;;;18.23;2.67;;;6.10;99.90;;;;;;4798809;29;20688;-61
2023/03/14 10:53:59;;;;;;;17.65;3.25;;;6.10;99.90;;;;;;4813333;29;20081;-60
2023/03/14 10:56:34;;;;;;;21.27;2.22;;;6.10;99.90;;;;;;4814646;29;20070;-58
2023/03/14 10:59:04;;;;;;;16.30;2.95;;;6.10;99.90;;;;;;4830622;29;20635;-58
2023/03/14 11:01:46;;;;;;;14.93;2.10;;;6.10;99.90;;;;;;4820392;29;20495;-59
2023/03/14 11:04:35;;;;;;;16.33;1.75;;;6.30;99.90;;;;;;4834223;29;20061;-59
2023/03/14 11:07:16;;;;;;;10.30;1.50;;;6.40;99.90;;;;;;4807294;29;20057;-58
2023/03/14 11:09:59;;;;;;;8.82;1.45;;;6.60;99.90;;;;;;4799638;29;20857;-60
2023/03/14 11:12:26;;;;;;;10.63;1.38;;;6.70;99.90;;;;;;4816195;29;20065;-61
2023/03/14 11:15:04;;;;;;;9.02;1.23;;;6.70;99.90;;;;;;4826127;29;20488;-62
2023/03/14 11:17:49;;;;;;;6.30;1.20;;;6.90;99.90;;;;;;4816374;29;20053;-61
2023/03/14 11:20:46;;;;;;;16.58;1.70;;;7.00;99.90;;;;;;4818825;29;20046;-59
2023/03/14 11:23:21;;;;;;;10.02;1.30;;;7.00;99.90;;;;;;4802646;29;20430;-58
2023/03/14 11:26:06;;;;;;;8.45;1.10;;;7.10;99.90;;;;;;4801329;29;20062;-58
2023/03/14 11:28:38;;;;;;;9.57;1.35;;;7.10;99.90;;;;;;4813478;29;20061;-58
2023/03/14 11:31:24;;;;;;;9.27;1.40;;;7.00;99.90;;;;;;4824237;29;20047;-58
2023/03/14 11:34:21;;;;;;;9.02;1.90;;;7.00;99.90;;;;;;4803367;29;20062;-60
2023/03/14 11:37:03;;;;;;;15.68;1.73;;;7.20;99.90;;;;;;4811740;29;20046;-59
2023/03/14 11:39:44;;;;;;;7.57;0.70;;;7.40;99.90;;;;;;4809925;29;20054;-58
2023/03/14 11:42:16;;;;;;;12.90;1.00;;;7.70;99.90;;;;;;4806673;29;20061;-60
2023/03/14 11:44:47;;;;;;;6.72;0.82;;;7.90;99.90;;;;;;4815917;29;20050;-59
2023/03/14 11:47:30;;;;;;;6.03;0.80;;;8.00;99.90;;;;;;4816020;29;20055;-60
2023/03/14 11:50:12;;;;;;;10.27;0.88;;;7.90;99.90;;;;;;4819238;29;20067;-58
2023/03/14 11:52:56;;;;;;;8.25;0.82;;;7.90;99.90;;;;;;4824198;29;20065;-59
2023/03/14 11:55:26;;;;;;;2.80;0.95;;;8.00;99.90;;;;;;4811913;29;20071;-60
2023/03/14 11:58:14;;;;;;;9.98;1.33;;;8.10;99.90;;;;;;4814019;29;20253;-58
2023/03/14 12:00:42;;;;;;;12.68;1.33;;;8.70;99.90;;;;;;4814714;29;20070;-59
2023/03/14 12:03:16;;;;;;;9.00;0.88;;;9.10;99.90;;;;;;4809845;29;20345;-60
2023/03/14 12:06:21;;;;;;;8.52;1.25;;;9.10;99.90;;;;;;4800654;29;20070;-59
2023/03/14 12:09:01;;;;;;;4.68;0.93;;;9.40;99.90;;;;;;4812612;29;20058;-59
2023/03/14 12:11:38;;;;;;;6.13;0.50;;;9.80;99.90;;;;;;4804341;29;20054;-58
2023/03/14 12:14:27;;;;;;;7.40;1.60;;;10.50;99.90;;;;;;4815361;29;20051;-59
2023/03/14 12:17:20;;;;;;;5.82;0.77;;;10.50;99.90;;;;;;4812055;29;20722;-59
2023/03/14 12:20:00;;;;;;;12.75;0.95;;;10.50;99.90;;;;;;4809388;29;20313;-60
2023/03/14 12:22:35;;;;;;;7.93;1.08;;;10.00;99.90;;;;;;4806719;29;20050;-58
2023/03/14 12:25:22;;;;;;;8.32;1.45;;;9.60;99.90;;;;;;4809623;29;20416;-58
2023/03/14 12:27:56;;;;;;;3.53;0.35;;;9.50;99.90;;;;;;4814949;29;20052;-58
2023/03/14 12:30:34;;;;;;;9.93;1.50;;;9.00;99.90;;;;;;4840456;29;20053;-59
2023/03/14 12:33:17;;;;;;;4.70;1.20;;;8.20;99.90;;;;;;4839749;29;20479;-59
2023/03/14 12:35:50;;;;;;;5.78;0.70;;;8.10;99.90;;;;;;4821515;29;20099;-58
2023/03/14 12:38:27;;;;;;;8.07;1.90;;;7.80;99.90;;;;;;4822855;29;20506;-58
2023/03/14 12:41:13;;;;;;;7.75;1.48;;;7.60;99.90;;;;;;4804221;29;20050;-58
2023/03/14 12:43:41;;;;;;;7.75;0.82;;;7.40;99.90;;;;;;4826459;29;20053;-57
2023/03/14 12:46:09;;;;;;;5.00;0.68;;;7.80;99.90;;;;;;4821749;29;20054;-59
2023/03/14 12:48:39;;;;;;;4.90;0.52;;;9.10;99.90;;;;;;4810703;29;20058;-59
2023/03/14 12:51:17;;;;;;;22.42;1.25;;;9.10;99.90;;;;;;4802109;29;20416;-59
2023/03/14 12:54:06;;;;;;;4.50;0.88;;;9.20;99.90;;;;;;4826204;29;20050;-59
2023/03/14 12:57:01;;;;;;;8.25;1.15;;;9.30;99.90;;;;;;4802455;29;20057;-60
2023/03/14 12:59:30;;;;;;;2.58;0.43;;;9.60;99.90;;;;;;4809196;29;20050;-59
2023/03/14 13:02:06;;;;;;;5.60;0.85;;;10.10;99.90;;;;;;4821194;29;20060;-59
2023/03/14 13:04:42;;;;;;;3.25;0.68;;;10.70;99.90;;;;;;4810275;29;20077;-59
2023/03/14 13:07:55;;;;;;;6.97;0.80;;;10.80;99.90;;;;;;4809113;29;20443;-59
2023/03/14 13:10:29;;;;;;;3.13;0.40;;;10.60;99.90;;;;;;4808464;29;20062;-59
2023/03/14 13:13:23;;;;;;;5.60;0.60;;;9.60;99.90;;;;;;4819197;29;20073;-58
2023/03/14 13:16:00;;;;;;;15.98;2.63;;;9.40;99.90;;;;;;4803369;29;20059;-59
2023/03/14 13:18:39;;;;;;;2.80;0.52;;;9.00;99.90;;;;;;4802565;29;20063;-59
2023/03/14 13:21:23;;;;;;;3.70;0.60;;;8.50;99.90;;;;;;4801539;29;20062;-59
2023/03/14 13:24:18;;;;;;;25.50;6.78;;;8.10;99.90;;;;;;4828158;29;20049;-59
2023/03/14 13:26:46;;;;;;;7.53;1.67;;;7.90;99.90;;;;;;4818876;29;20411;-59
2023/03/14 13:29:17;;;;;;;3.83;0.70;;;7.80;99.90;;;;;;4814821;29;20066;-60
2023/03/14 13:31:47;;;;;;;21.60;0.80;;;7.80;99.90;;;;;;4807613;29;20055;-59
2023/03/14 13:34:15;;;;;;;3.83;0.75;;;7.70;99.90;;;;;;4826910;29;20059;-60